Time;durP1;ratioP1;P1;durP2;ratioP2;P2;SDS_P1;SDS_P2;PMS_P1;PMS_P2;Temp;Humidity;BMP_temperature;BMP_pressure;BME280_temperature;BME280_humidity;BME280_pressure;Samples;Min_cycle;Max_cycle;Signal;HPM_P1;HPM_P2
2022/04/27 00:01:23;;;;;;;7.28;3.97;;;12.60;61.00;;;;;;5028526;28;20120;-76
2022/04/27 00:03:49;;;;;;;;;;;12.60;60.90;;;;;;5052177;28;20128;-76
2022/04/27 00:06:15;;;;;;;8.75;3.78;;;12.60;60.10;;;;;;5043918;28;19912;-76
2022/04/27 00:08:42;;;;;;;8.60;3.88;;;12.60;60.20;;;;;;5051585;28;20116;-74
2022/04/27 00:11:08;;;;;;;10.82;4.38;;;12.70;60.50;;;;;;5030348;28;20517;-76
2022/04/27 00:13:34;;;;;;;12.20;4.97;;;12.70;60.50;;;;;;5048210;28;20075;-74
2022/04/27 00:16:00;;;;;;;8.68;3.95;;;12.80;60.50;;;;;;5052161;28;20067;-75
2022/04/27 00:18:26;;;;;;;8.48;4.00;;;12.70;61.10;;;;;;5045736;28;20044;-74
2022/04/27 00:20:53;;;;;;;9.68;4.72;;;12.70;61.60;;;;;;5052524;28;20389;-75
2022/04/27 00:23:21;;;;;;;9.73;4.70;;;12.70;61.80;;;;;;5028137;28;20560;-74
2022/04/27 00:25:47;;;;;;;9.07;3.97;;;12.70;62.30;;;;;;5027946;28;20075;-76
2022/04/27 00:28:13;;;;;;;;;;;12.80;62.70;;;;;;5035248;28;20120;-75
2022/04/27 00:30:39;;;;;;;8.25;3.05;;;12.80;61.70;;;;;;5052089;28;19920;-76
2022/04/27 00:33:06;;;;;;;9.52;4.00;;;12.90;63.20;;;;;;5017892;28;20135;-74
2022/04/27 00:35:32;;;;;;;9.07;3.55;;;12.90;63.10;;;;;;5034293;28;20486;-76
2022/04/27 00:37:58;;;;;;;;;;;12.90;64.10;;;;;;5035119;28;20037;-74
2022/04/27 00:40:24;;;;;;;5.47;2.45;;;13.00;62.80;;;;;;5052262;28;20403;-76
2022/04/27 00:42:50;;;;;;;4.85;2.30;;;13.00;64.30;;;;;;5051190;28;20041;-74
2022/04/27 00:45:17;;;;;;;4.97;2.70;;;13.10;65.20;;;;;;5043557;28;20049;-75
2022/04/27 00:47:43;;;;;;;7.10;2.45;;;13.10;65.50;;;;;;5051196;28;20052;-74
2022/04/27 00:50:11;;;;;;;6.43;2.28;;;13.10;65.80;;;;;;5053093;28;20401;-76
2022/04/27 00:52:38;;;;;;;10.00;3.00;;;13.20;66.30;;;;;;5054955;28;20047;-77
2022/04/27 00:55:05;;;;;;;7.55;2.83;;;13.20;66.20;;;;;;5053976;28;20041;-74
2022/04/27 00:57:34;;;;;;;5.07;2.38;;;13.20;66.90;;;;;;5038253;28;20041;-76
2022/04/27 01:00:00;;;;;;;6.70;2.60;;;13.20;67.20;;;;;;5038310;28;20029;-76
2022/04/27 01:02:26;;;;;;;5.82;1.77;;;13.20;66.90;;;;;;5037802;28;20448;-76
2022/04/27 01:04:52;;;;;;;9.57;2.45;;;13.20;67.70;;;;;;5052760;28;20060;-76
2022/04/27 01:07:19;;;;;;;5.32;2.03;;;13.20;67.70;;;;;;5047381;28;20068;-74
2022/04/27 01:09:45;;;;;;;;;;;13.10;66.90;;;;;;5053909;28;20104;-76
2022/04/27 01:12:11;;;;;;;4.15;1.50;;;13.10;66.80;;;;;;5055432;28;19921;-76
2022/04/27 01:14:56;;;;;;;5.82;1.98;;;13.10;67.20;;;;;;5050354;28;20079;-75
2022/04/27 01:17:22;;;;;;;4.15;1.75;;;13.00;67.40;;;;;;5054105;28;20045;-74
2022/04/27 01:19:49;;;;;;;4.50;1.60;;;13.00;67.70;;;;;;5054518;28;20033;-77
2022/04/27 01:22:15;;;;;;;4.68;1.55;;;13.00;67.70;;;;;;5055366;28;20489;-74
2022/04/27 01:24:44;;;;;;;4.38;1.27;;;12.90;67.80;;;;;;5024457;28;20062;-77
2022/04/27 01:27:10;;;;;;;4.03;1.58;;;12.90;67.80;;;;;;5017551;28;20116;-77
2022/04/27 01:29:37;;;;;;;2.85;1.10;;;12.80;68.20;;;;;;5035628;28;20029;-74
2022/04/27 01:32:04;;;;;;;3.67;1.10;;;12.80;68.20;;;;;;5033718;28;20111;-74
2022/04/27 01:34:30;;;;;;;2.70;1.10;;;12.80;68.00;;;;;;5035458;28;20061;-76
2022/04/27 01:39:41;;;;;;;4.05;1.50;;;12.80;67.20;;;;;;5035237;28;19967;-76
2022/04/27 01:42:07;;;;;;;2.70;1.15;;;12.70;67.40;;;;;;5053598;28;20390;-74
2022/04/27 01:44:33;;;;;;;;;;;12.70;67.10;;;;;;5021765;28;20357;-74
2022/04/27 01:46:59;;;;;;;3.88;1.58;;;12.70;67.20;;;;;;5052339;28;19912;-75
2022/04/27 01:49:26;;;;;;;5.30;1.60;;;12.70;67.80;;;;;;5048146;28;20426;-77
2022/04/27 01:54:37;;;;;;;3.42;1.30;;;12.60;68.50;;;;;;5049867;28;20104;-77
2022/04/27 01:57:03;;;;;;;5.72;1.35;;;12.60;68.70;;;;;;5052901;28;20183;-76
2022/04/27 01:59:29;;;;;;;3.08;1.08;;;12.50;68.30;;;;;;5054974;28;20043;-76
2022/04/27 02:01:57;;;;;;;2.53;1.00;;;12.50;69.10;;;;;;5051395;28;20033;-77
2022/04/27 02:04:23;;;;;;;3.08;1.17;;;12.50;69.20;;;;;;5054817;28;20040;-76
2022/04/27 02:06:49;;;;;;;3.08;0.90;;;12.50;69.20;;;;;;5050688;28;20120;-77
2022/04/27 02:09:15;;;;;;;2.60;1.17;;;12.40;69.00;;;;;;5046448;28;20061;-75
2022/04/27 02:11:41;;;;;;;1.85;0.88;;;12.50;69.10;;;;;;5036700;28;20057;-76
2022/04/27 02:14:08;;;;;;;2.30;0.80;;;12.50;68.90;;;;;;5017331;28;20073;-74
2022/04/27 02:16:34;;;;;;;1.95;0.73;;;12.40;68.70;;;;;;5034395;28;20485;-75
2022/04/27 02:19:01;;;;;;;2.13;0.77;;;12.40;68.60;;;;;;5017166;28;20042;-75
2022/04/27 02:21:27;;;;;;;1.23;0.50;;;12.40;68.60;;;;;;5032989;28;20052;-77
2022/04/27 02:23:55;;;;;;;1.60;0.60;;;12.40;68.40;;;;;;5036391;28;20103;-77
2022/04/27 02:26:22;;;;;;;1.58;0.80;;;12.40;68.70;;;;;;5053181;28;20040;-77
2022/04/27 02:28:48;;;;;;;1.67;0.50;;;12.30;68.90;;;;;;5054884;28;20048;-75
2022/04/27 02:31:14;;;;;;;1.65;0.57;;;12.20;68.90;;;;;;5028736;28;20120;-75
2022/04/27 02:33:40;;;;;;;3.75;0.70;;;12.20;68.30;;;;;;5052695;28;20041;-77
2022/04/27 02:36:07;;;;;;;2.85;0.60;;;12.20;69.00;;;;;;5054034;28;20025;-77
2022/04/27 02:38:33;;;;;;;1.20;0.40;;;12.20;68.90;;;;;;5048238;28;20057;-74
2022/04/27 02:40:59;;;;;;;1.00;0.40;;;12.20;68.60;;;;;;5051412;28;20029;-75
2022/04/27 02:43:27;;;;;;;4.25;0.60;;;12.20;68.40;;;;;;5047270;28;20044;-75
2022/04/27 02:45:53;;;;;;;1.33;0.50;;;12.20;68.30;;;;;;5052501;28;20167;-74
2022/04/27 02:48:19;;;;;;;3.40;0.63;;;12.20;68.10;;;;;;5053937;28;20124;-77
2022/04/27 02:53:30;;;;;;;2.55;1.00;;;12.20;67.90;;;;;;5052985;28;20426;-76
2022/04/27 02:55:56;;;;;;;0.50;0.38;;;12.10;67.90;;;;;;5049794;28;20132;-77
2022/04/27 02:58:23;;;;;;;1.13;0.50;;;12.10;68.30;;;;;;5029883;28;20045;-74
2022/04/27 03:00:50;;;;;;;1.50;0.50;;;12.10;68.40;;;;;;5052238;28;20489;-78
2022/04/27 03:03:16;;;;;;;4.22;0.60;;;12.00;68.60;;;;;;5045733;28;20064;-74
2022/04/27 03:05:43;;;;;;;0.93;0.40;;;12.00;68.70;;;;;;5035503;28;20186;-74
2022/04/27 03:08:10;;;;;;;1.17;0.40;;;12.00;68.60;;;;;;5053949;28;20385;-77
2022/04/27 03:10:36;;;;;;;1.45;0.40;;;12.00;68.30;;;;;;5046710;28;20043;-78
2022/04/27 03:13:02;;;;;;;;;;;11.90;68.30;;;;;;5052038;28;20037;-77
2022/04/27 03:15:31;;;;;;;0.90;0.30;;;11.90;68.10;;;;;;5053232;28;19917;-74
2022/04/27 03:20:42;;;;;;;0.75;0.30;;;11.80;68.30;;;;;;5053096;28;20040;-74
2022/04/27 03:23:08;;;;;;;0.73;0.40;;;11.80;68.10;;;;;;5027570;28;20044;-77
2022/04/27 03:25:34;;;;;;;0.88;0.40;;;11.90;68.20;;;;;;5037344;28;20111;-75
2022/04/27 03:28:01;;;;;;;2.70;0.50;;;11.90;68.00;;;;;;5051268;28;20069;-74
2022/04/27 03:30:27;;;;;;;0.65;0.38;;;11.90;67.90;;;;;;5029351;28;20557;-75
2022/04/27 03:32:54;;;;;;;1.42;0.35;;;11.80;67.50;;;;;;5053153;28;20041;-74
2022/04/27 03:35:20;;;;;;;1.38;0.60;;;11.80;67.30;;;;;;5053168;28;20034;-74
2022/04/27 03:37:46;;;;;;;0.85;0.40;;;11.80;67.10;;;;;;5049080;28;20516;-77
2022/04/27 03:40:12;;;;;;;1.35;0.40;;;11.80;67.30;;;;;;5052725;28;20532;-77
2022/04/27 03:42:39;;;;;;;0.73;0.50;;;11.80;66.90;;;;;;5052402;28;20124;-75
2022/04/27 03:45:05;;;;;;;1.63;0.95;;;11.80;66.90;;;;;;5052820;28;20036;-75
2022/04/27 03:47:32;;;;;;;0.77;0.30;;;11.80;66.80;;;;;;5053031;28;20307;-77
2022/04/27 03:50:04;;;;;;;1.90;0.40;;;11.80;67.00;;;;;;5052984;28;20082;-74
2022/04/27 03:52:31;;;;;;;0.77;0.40;;;11.80;67.00;;;;;;5052828;28;20116;-75
2022/04/27 03:57:45;;;;;;;0.60;0.32;;;11.70;67.20;;;;;;5047757;28;20033;-75
2022/04/27 04:00:12;;;;;;;1.38;0.50;;;11.80;67.50;;;;;;5043336;28;20021;-76
2022/04/27 04:02:39;;;;;;;1.17;0.40;;;11.70;67.50;;;;;;5051362;28;20076;-74
2022/04/27 04:05:06;;;;;;;1.20;0.40;;;11.70;66.80;;;;;;5051197;28;20400;-74
2022/04/27 04:07:34;;;;;;;4.20;1.52;;;11.70;67.50;;;;;;5046556;28;20045;-77
2022/04/27 04:10:01;;;;;;;2.70;0.60;;;11.70;67.40;;;;;;5051466;28;20021;-74
2022/04/27 04:12:28;;;;;;;1.45;0.50;;;11.70;67.10;;;;;;5027938;28;20079;-76
2022/04/27 04:14:54;;;;;;;;;;;11.80;67.00;;;;;;5051948;28;20033;-77
2022/04/27 04:17:20;;;;;;;1.52;0.55;;;11.80;66.10;;;;;;5044387;28;19930;-76
2022/04/27 04:19:46;;;;;;;1.65;0.60;;;11.80;66.70;;;;;;5051244;28;20490;-74
2022/04/27 04:22:13;;;;;;;2.05;0.63;;;11.80;66.60;;;;;;5043371;28;20457;-76
2022/04/27 04:28:29;;;;;;;3.67;1.13;;;11.80;66.40;;;;;;5045183;28;20434;-76
2022/04/27 04:30:11;;;;;;;3.95;1.60;;;11.90;66.30;;;;;;5043238;28;20540;-78
2022/04/27 04:32:38;;;;;;;;;;;11.90;65.60;;;;;;5047367;28;20128;-74
2022/04/27 04:35:05;;;;;;;6.03;0.80;;;11.90;65.20;;;;;;5034398;28;20300;-74
2022/04/27 04:37:32;;;;;;;2.10;0.60;;;11.90;64.80;;;;;;5034584;28;20044;-76
2022/04/27 04:39:59;;;;;;;4.03;0.80;;;11.90;64.60;;;;;;5052328;28;20033;-77
2022/04/27 04:42:25;;;;;;;3.60;1.02;;;12.00;64.20;;;;;;5043809;28;20048;-74
2022/04/27 04:44:52;;;;;;;;;;;12.00;63.90;;;;;;5051558;28;20037;-76
2022/04/27 04:47:18;;;;;;;2.85;0.73;;;12.00;63.80;;;;;;5043759;28;19967;-77
2022/04/27 04:49:44;;;;;;;;;;;12.10;63.50;;;;;;5051668;28;20495;-74
2022/04/27 04:52:10;;;;;;;5.82;1.45;;;12.10;63.40;;;;;;5051885;28;19924;-77
2022/04/27 04:54:36;;;;;;;14.40;4.78;;;12.10;62.80;;;;;;5046595;28;20405;-75
2022/04/27 04:57:03;;;;;;;4.30;0.93;;;12.10;62.90;;;;;;5050938;28;20511;-74
2022/04/27 04:59:29;;;;;;;2.58;0.82;;;12.10;62.10;;;;;;5045690;28;20045;-77
2022/04/27 05:01:55;;;;;;;6.90;2.03;;;12.10;62.70;;;;;;5051793;28;20057;-76
2022/04/27 05:04:22;;;;;;;8.23;3.03;;;12.10;62.70;;;;;;5052082;28;20068;-77
2022/04/27 05:06:48;;;;;;;11.98;5.57;;;12.10;62.70;;;;;;5052008;28;20079;-76
2022/04/27 05:09:14;;;;;;;8.68;4.00;;;12.10;62.80;;;;;;5052431;28;20029;-74
2022/04/27 05:11:40;;;;;;;8.90;4.38;;;12.10;62.60;;;;;;5050794;28;20069;-76
2022/04/27 05:14:06;;;;;;;9.18;5.15;;;12.10;62.50;;;;;;5034051;28;20079;-76
2022/04/27 05:16:33;;;;;;;5.90;3.15;;;12.00;62.50;;;;;;5045616;28;20490;-74
2022/04/27 05:18:59;;;;;;;4.57;1.17;;;12.00;62.50;;;;;;5050925;28;20045;-74
2022/04/27 05:21:26;;;;;;;3.83;1.15;;;12.00;62.00;;;;;;5027898;28;20052;-74
2022/04/27 05:23:53;;;;;;;3.10;1.08;;;12.00;62.50;;;;;;5050908;28;20065;-77
2022/04/27 05:26:19;;;;;;;3.33;0.60;;;12.00;62.60;;;;;;5033688;28;20060;-74
2022/04/27 05:34:15;;;;;;;2.53;0.70;;;12.00;62.80;;;;;;5044774;28;20123;-75
2022/04/27 05:36:41;;;;;;;2.17;0.82;;;12.00;63.20;;;;;;5034425;28;20037;-75
2022/04/27 05:39:07;;;;;;;3.63;0.55;;;11.90;63.60;;;;;;5035364;28;20465;-78
2022/04/27 05:41:34;;;;;;;1.02;0.50;;;11.80;63.40;;;;;;5034572;28;20478;-77
2022/04/27 05:44:06;;;;;;;1.13;0.50;;;11.90;64.10;;;;;;5017386;28;20052;-75
2022/04/27 05:46:35;;;;;;;2.80;0.52;;;12.00;63.30;;;;;;5018120;28;20021;-74
2022/04/27 05:49:02;;;;;;;0.93;0.40;;;12.00;63.30;;;;;;5017781;28;20033;-77
2022/04/27 05:51:28;;;;;;;1.45;0.60;;;12.00;62.80;;;;;;5017176;28;20113;-78
2022/04/27 05:53:55;;;;;;;0.60;0.35;;;12.00;63.40;;;;;;5035484;28;20041;-74
2022/04/27 05:56:22;;;;;;;5.45;1.30;;;12.00;63.40;;;;;;5034829;28;20116;-76
2022/04/27 05:58:49;;;;;;;2.25;1.00;;;12.00;63.50;;;;;;5034805;28;20288;-77
2022/04/27 06:01:15;;;;;;;1.98;0.70;;;12.00;63.20;;;;;;5016929;28;20445;-74
2022/04/27 06:03:42;;;;;;;;;;;12.00;63.20;;;;;;5034217;28;20041;-74
2022/04/27 06:06:08;;;;;;;2.05;0.52;;;12.00;62.80;;;;;;5034542;28;19944;-75
2022/04/27 06:08:34;;;;;;;3.22;1.08;;;12.00;62.90;;;;;;5035178;28;20041;-76
2022/04/27 06:11:00;;;;;;;6.03;0.85;;;12.00;62.80;;;;;;5016843;28;20120;-74
2022/04/27 06:13:27;;;;;;;;;;;12.00;62.60;;;;;;5016893;28;20454;-76
2022/04/27 06:15:54;;;;;;;3.95;1.00;;;12.00;62.40;;;;;;5016808;28;19932;-77
2022/04/27 06:18:20;;;;;;;3.55;0.70;;;12.10;62.10;;;;;;5017094;28;20460;-75
2022/04/27 06:20:46;;;;;;;2.63;0.90;;;12.10;62.00;;;;;;5016682;28;20053;-75
2022/04/27 06:23:13;;;;;;;2.33;0.80;;;12.10;62.00;;;;;;5034929;28;20096;-74
2022/04/27 06:25:41;;;;;;;2.88;0.90;;;12.10;61.70;;;;;;5016243;28;20029;-77
2022/04/27 06:28:08;;;;;;;3.63;0.90;;;12.10;61.50;;;;;;5016105;28;20474;-78
2022/04/27 06:30:35;;;;;;;3.70;1.15;;;12.10;61.30;;;;;;5016457;28;20029;-74
2022/04/27 06:33:20;;;;;;;2.83;0.90;;;12.20;61.60;;;;;;5019268;28;20068;-74
2022/04/27 06:35:46;;;;;;;5.05;1.65;;;12.20;61.00;;;;;;5054023;28;20451;-76
2022/04/27 06:38:12;;;;;;;;;;;12.20;61.50;;;;;;5046133;28;20043;-74
2022/04/27 06:40:39;;;;;;;15.88;5.70;;;12.20;61.40;;;;;;5052626;28;19912;-74
2022/04/27 06:43:05;;;;;;;7.25;2.80;;;12.30;61.50;;;;;;5053654;28;20040;-73
2022/04/27 06:45:32;;;;;;;;;;;12.20;61.00;;;;;;5047951;28;20029;-76
2022/04/27 06:47:58;;;;;;;6.85;2.25;;;12.20;61.50;;;;;;5053236;28;19921;-76
2022/04/27 06:50:25;;;;;;;5.93;1.88;;;12.20;61.60;;;;;;5046522;28;20493;-74
2022/04/27 06:55:37;;;;;;;2.83;1.00;;;12.30;61.80;;;;;;5053617;28;20071;-74
2022/04/27 06:58:04;;;;;;;1.75;0.60;;;12.30;61.60;;;;;;5018870;28;20037;-74
2022/04/27 07:00:30;;;;;;;2.30;0.73;;;12.30;60.90;;;;;;5030365;28;20044;-76
2022/04/27 07:02:57;;;;;;;6.30;1.42;;;12.40;61.40;;;;;;5035833;28;20040;-74
2022/04/27 07:05:25;;;;;;;4.30;1.35;;;12.40;61.20;;;;;;5045944;28;20124;-75
2022/04/27 07:07:51;;;;;;;2.70;0.88;;;12.50;60.70;;;;;;5052525;28;20033;-77
2022/04/27 07:10:19;;;;;;;2.00;0.70;;;12.50;60.60;;;;;;5028503;28;20481;-77
2022/04/27 07:12:47;;;;;;;3.97;1.20;;;12.50;60.80;;;;;;5051665;28;20076;-76
2022/04/27 07:15:13;;;;;;;5.35;1.30;;;12.50;61.00;;;;;;5044275;28;20068;-74
2022/04/27 07:17:39;;;;;;;;;;;12.60;60.50;;;;;;5052920;28;20555;-74
2022/04/27 07:20:07;;;;;;;5.20;1.55;;;12.70;60.80;;;;;;5052015;28;19948;-76
2022/04/27 07:22:33;;;;;;;6.85;1.60;;;12.70;60.50;;;;;;5047464;28;20048;-74
2022/04/27 07:24:59;;;;;;;5.72;1.48;;;12.70;60.50;;;;;;5043482;28;20067;-76
2022/04/27 07:27:27;;;;;;;;;;;12.70;60.30;;;;;;5035218;28;20032;-74
2022/04/27 07:29:54;;;;;;;7.78;2.22;;;12.70;60.20;;;;;;5049748;28;19954;-74
2022/04/27 07:32:20;;;;;;;5.28;1.80;;;12.70;59.90;;;;;;5045176;28;20532;-74
2022/04/27 07:34:46;;;;;;;4.50;1.58;;;12.80;59.90;;;;;;5051836;28;20072;-74
2022/04/27 07:37:12;;;;;;;10.95;1.73;;;12.90;59.80;;;;;;5051819;28;20118;-76
2022/04/27 07:39:38;;;;;;;4.10;1.05;;;13.00;59.60;;;;;;5047984;28;20029;-76
2022/04/27 07:42:05;;;;;;;7.32;2.28;;;13.00;59.40;;;;;;5051485;28;20040;-74
2022/04/27 07:44:31;;;;;;;5.60;1.85;;;13.10;59.40;;;;;;5017926;28;20423;-76
2022/04/27 07:46:57;;;;;;;5.57;1.85;;;13.10;59.20;;;;;;5052569;28;20405;-76
2022/04/27 07:49:23;;;;;;;4.13;0.70;;;13.20;58.90;;;;;;5052926;28;20094;-77
2022/04/27 07:51:50;;;;;;;7.00;1.73;;;13.20;58.80;;;;;;5048776;28;20029;-74
2022/04/27 07:54:17;;;;;;;6.03;1.85;;;13.10;58.30;;;;;;5044597;28;20082;-76
2022/04/27 07:56:43;;;;;;;3.38;0.98;;;13.10;58.90;;;;;;5051356;28;20083;-76
2022/04/27 07:59:09;;;;;;;5.78;1.75;;;13.10;58.80;;;;;;5051587;28;20051;-74
2022/04/27 08:01:35;;;;;;;7.18;1.60;;;13.10;58.30;;;;;;5030050;28;20458;-76
2022/04/27 08:04:01;;;;;;;9.73;2.40;;;13.20;58.20;;;;;;5051707;28;20460;-76
2022/04/27 08:06:27;;;;;;;;;;;13.20;58.30;;;;;;5052801;28;20108;-76
2022/04/27 08:08:53;;;;;;;5.00;1.38;;;13.30;58.30;;;;;;5034969;28;20301;-76
2022/04/27 08:11:22;;;;;;;3.10;1.10;;;13.30;57.90;;;;;;5052268;28;20104;-76
2022/04/27 08:13:48;;;;;;;3.67;1.20;;;13.30;57.50;;;;;;5047790;28;20405;-74
2022/04/27 08:16:15;;;;;;;2.78;1.00;;;13.40;57.40;;;;;;5052206;28;20465;-76
2022/04/27 08:18:41;;;;;;;;;;;13.50;57.30;;;;;;5048373;28;20545;-74
2022/04/27 08:21:16;;;;;;;5.28;1.75;;;13.50;56.80;;;;;;5052015;28;19913;-78
2022/04/27 08:23:48;;;;;;;4.22;1.63;;;13.60;56.80;;;;;;5032584;28;20057;-74
2022/04/27 08:26:15;;;;;;;4.28;1.38;;;13.50;56.30;;;;;;5010411;28;20098;-76
2022/04/27 08:28:42;;;;;;;3.90;1.58;;;13.60;56.10;;;;;;5033987;28;20091;-76
2022/04/27 08:31:12;;;;;;;8.48;2.40;;;13.60;55.60;;;;;;5051976;28;20033;-74
2022/04/27 08:33:39;;;;;;;3.72;1.40;;;13.50;55.50;;;;;;5046969;28;20064;-76
2022/04/27 08:36:07;;;;;;;5.32;1.40;;;13.50;55.70;;;;;;5050823;28;20104;-74
2022/04/27 08:38:34;;;;;;;3.22;1.25;;;13.60;55.40;;;;;;5052817;28;20045;-75
2022/04/27 08:41:01;;;;;;;3.97;1.40;;;13.60;55.20;;;;;;5033137;28;20516;-75
2022/04/27 08:43:27;;;;;;;5.00;1.70;;;13.60;55.10;;;;;;5044714;28;20053;-74
2022/04/27 08:45:55;;;;;;;7.00;2.10;;;13.60;54.70;;;;;;5051940;28;20396;-75
2022/04/27 08:48:22;;;;;;;9.48;1.77;;;13.60;55.30;;;;;;5044747;28;20036;-77
2022/04/27 08:50:50;;;;;;;9.30;1.50;;;13.70;55.10;;;;;;5050592;28;20026;-74
2022/04/27 08:53:16;;;;;;;4.10;1.58;;;13.70;54.80;;;;;;5044028;28;20068;-77
2022/04/27 08:55:43;;;;;;;;;;;13.80;54.90;;;;;;5051172;28;20037;-74
2022/04/27 08:58:27;;;;;;;6.40;2.20;;;13.80;55.00;;;;;;5026705;28;19924;-78
2022/04/27 09:00:53;;;;;;;4.20;1.50;;;13.80;54.50;;;;;;5050610;28;20094;-76
2022/04/27 09:03:39;;;;;;;2.50;0.88;;;13.90;54.30;;;;;;5027916;28;20033;-77
2022/04/27 09:06:12;;;;;;;3.40;1.00;;;14.00;54.00;;;;;;5050409;28;20124;-74
2022/04/27 09:11:37;;;;;;;2.72;1.15;;;14.20;53.50;;;;;;5053669;28;20043;-74
2022/04/27 09:14:08;;;;;;;2.78;1.02;;;14.30;52.80;;;;;;5048638;28;20053;-74
2022/04/27 09:22:27;;;;;;;7.05;1.65;;;14.60;52.40;;;;;;5020571;28;20040;-77
2022/04/27 09:24:55;;;;;;;;;;;14.60;52.70;;;;;;5011425;28;20034;-74
2022/04/27 09:27:23;;;;;;;3.92;1.08;;;14.50;52.90;;;;;;5037286;28;19920;-74
2022/04/27 09:30:10;;;;;;;4.95;1.15;;;14.60;52.40;;;;;;5042733;28;20044;-76
2022/04/27 09:32:37;;;;;;;4.65;1.17;;;14.80;51.90;;;;;;5049940;28;20040;-75
2022/04/27 09:35:08;;;;;;;3.85;1.20;;;15.00;51.10;;;;;;5054016;28;20052;-77
2022/04/27 09:37:53;;;;;;;6.57;1.60;;;15.20;51.30;;;;;;5049627;28;20037;-77
2022/04/27 09:40:19;;;;;;;6.88;1.75;;;15.50;51.20;;;;;;5053675;28;20116;-74
2022/04/27 09:42:46;;;;;;;3.22;1.17;;;15.70;50.30;;;;;;5054329;28;20079;-75
2022/04/27 09:45:31;;;;;;;5.55;1.40;;;16.00;50.00;;;;;;5028500;28;20045;-74
2022/04/27 09:48:17;;;;;;;4.22;1.13;;;16.80;49.00;;;;;;5037290;28;20040;-76
2022/04/27 09:51:02;;;;;;;3.47;1.23;;;17.30;47.70;;;;;;5050294;28;20508;-76
2022/04/27 09:53:30;;;;;;;4.45;1.50;;;17.80;46.90;;;;;;5055429;28;20076;-76
2022/04/27 09:55:56;;;;;;;5.50;2.13;;;17.90;45.90;;;;;;5051830;28;20033;-77
2022/04/27 09:58:24;;;;;;;;;;;17.90;46.30;;;;;;5055949;28;20072;-74
2022/04/27 10:00:56;;;;;;;3.92;1.60;;;17.60;47.40;;;;;;5050033;28;19940;-76
2022/04/27 10:03:25;;;;;;;2.83;1.15;;;17.40;46.90;;;;;;5047610;28;20041;-76
2022/04/27 10:05:52;;;;;;;3.15;1.13;;;17.40;46.90;;;;;;5053411;28;20040;-74
2022/04/27 10:08:20;;;;;;;2.83;1.13;;;17.20;46.70;;;;;;5046940;28;20094;-76
2022/04/27 10:10:47;;;;;;;2.60;0.80;;;17.10;46.70;;;;;;5053308;28;20393;-76
2022/04/27 10:13:32;;;;;;;3.95;1.40;;;16.90;47.10;;;;;;5029424;28;20489;-74
2022/04/27 10:15:59;;;;;;;4.03;1.30;;;16.70;47.60;;;;;;5052024;28;20037;-75
2022/04/27 10:18:25;;;;;;;3.35;1.48;;;16.60;46.90;;;;;;5047644;28;20105;-73
2022/04/27 10:20:51;;;;;;;;;;;16.60;47.60;;;;;;5053371;28;20025;-76
2022/04/27 10:23:56;;;;;;;4.07;1.33;;;16.60;47.90;;;;;;5046687;28;19925;-76
2022/04/27 10:26:42;;;;;;;4.22;1.25;;;16.60;47.90;;;;;;5024074;28;20061;-74
2022/04/27 10:29:10;;;;;;;7.82;1.58;;;16.70;47.20;;;;;;5035873;28;20064;-74
2022/04/27 10:31:55;;;;;;;3.60;1.38;;;16.60;47.90;;;;;;5019676;28;20478;-74
2022/04/27 10:34:23;;;;;;;3.17;1.20;;;16.50;48.60;;;;;;5054147;28;20641;-76
2022/04/27 10:36:51;;;;;;;4.10;1.65;;;16.40;48.80;;;;;;5019614;28;20029;-74
2022/04/27 10:39:37;;;;;;;3.78;1.35;;;16.30;48.90;;;;;;5046337;28;20436;-77
2022/04/27 10:42:03;;;;;;;4.82;1.83;;;16.30;49.10;;;;;;5052604;28;20041;-74
2022/04/27 10:47:51;;;;;;;11.18;2.80;;;16.50;49.10;;;;;;5054431;28;20579;-76
2022/04/27 10:50:37;;;;;;;6.60;2.55;;;16.60;49.10;;;;;;5028879;28;20115;-76
2022/04/27 10:53:42;;;;;;;4.57;1.90;;;16.60;48.70;;;;;;5052950;28;20053;-74
2022/04/27 10:56:22;;;;;;;5.55;1.58;;;16.60;48.80;;;;;;5044212;28;20025;-76
2022/04/27 10:58:49;;;;;;;2.40;1.10;;;16.40;49.00;;;;;;5054476;28;20048;-76
2022/04/27 11:01:36;;;;;;;3.10;1.20;;;16.10;49.70;;;;;;5044097;28;20036;-77
2022/04/27 11:04:21;;;;;;;;;;;16.00;50.00;;;;;;5053322;28;20090;-76
2022/04/27 11:07:44;;;;;;;3.90;1.35;;;15.80;50.00;;;;;;5032638;28;20412;-76
2022/04/27 11:10:20;;;;;;;3.95;1.63;;;15.60;50.20;;;;;;5053395;28;20100;-76
2022/04/27 11:15:52;;;;;;;2.92;1.20;;;15.30;50.50;;;;;;5052565;28;20490;-74
2022/04/27 11:18:19;;;;;;;;;;;15.30;50.10;;;;;;5046187;28;20041;-74
2022/04/27 11:20:45;;;;;;;3.90;1.40;;;15.20;50.00;;;;;;5051974;28;19912;-76
2022/04/27 11:23:30;;;;;;;2.72;1.10;;;15.20;49.90;;;;;;5044550;28;20037;-76
2022/04/27 11:26:00;;;;;;;3.10;1.40;;;15.10;50.00;;;;;;5052727;28;20115;-74
2022/04/27 11:28:27;;;;;;;4.95;1.40;;;15.10;50.10;;;;;;5035584;28;20041;-76
2022/04/27 11:30:54;;;;;;;4.75;2.08;;;15.10;50.00;;;;;;5014647;28;20036;-77
2022/04/27 11:33:21;;;;;;;4.25;1.80;;;15.20;50.10;;;;;;5032525;28;20502;-77
2022/04/27 11:35:49;;;;;;;18.70;4.65;;;15.10;49.90;;;;;;5031714;28;20030;-76
2022/04/27 11:38:36;;;;;;;15.07;4.78;;;15.20;49.80;;;;;;5032244;28;20072;-74
2022/04/27 11:41:03;;;;;;;6.60;1.83;;;15.20;50.00;;;;;;5015279;28;20040;-74
2022/04/27 11:46:16;;;;;;;8.45;3.13;;;15.00;50.30;;;;;;5045889;28;20086;-74
2022/04/27 11:49:00;;;;;;;3.90;1.65;;;15.00;50.60;;;;;;5053384;28;20383;-77
2022/04/27 11:51:26;;;;;;;7.55;3.28;;;15.00;50.70;;;;;;5052714;28;20334;-76
2022/04/27 11:53:54;;;;;;;12.05;5.22;;;15.00;50.90;;;;;;5033271;28;20333;-77
2022/04/27 11:56:20;;;;;;;9.32;2.97;;;15.00;50.60;;;;;;5044620;28;20025;-74
2022/04/27 11:58:46;;;;;;;7.63;1.65;;;15.00;50.90;;;;;;5052943;28;20401;-74
2022/04/27 12:01:31;;;;;;;4.53;1.40;;;15.10;51.10;;;;;;5051689;28;20393;-77
2022/04/27 12:03:57;;;;;;;5.28;1.65;;;15.10;51.60;;;;;;5050254;28;20124;-74
2022/04/27 12:06:27;;;;;;;4.13;1.10;;;15.20;51.20;;;;;;5028361;28;20108;-78
2022/04/27 12:09:02;;;;;;;4.97;1.42;;;15.40;51.00;;;;;;5051504;28;20106;-75
2022/04/27 12:11:28;;;;;;;5.75;1.30;;;15.40;51.00;;;;;;5045688;28;20027;-74
2022/04/27 12:13:55;;;;;;;5.20;1.10;;;15.50;51.20;;;;;;5053070;28;20064;-78
2022/04/27 12:16:22;;;;;;;2.85;0.90;;;15.60;50.70;;;;;;5033587;28;20071;-74
2022/04/27 12:19:07;;;;;;;5.88;1.83;;;15.60;51.10;;;;;;5048759;28;20409;-75
2022/04/27 12:21:33;;;;;;;6.32;1.80;;;15.60;51.40;;;;;;5046282;28;20485;-75
2022/04/27 12:24:14;;;;;;;;;;;15.60;51.50;;;;;;5035129;28;20540;-74
2022/04/27 12:26:41;;;;;;;7.53;2.67;;;15.60;51.10;;;;;;5050773;28;19913;-79
2022/04/27 12:29:07;;;;;;;6.78;2.72;;;15.60;51.50;;;;;;5034724;28;20050;-78
2022/04/27 12:31:34;;;;;;;8.02;2.15;;;15.60;51.50;;;;;;5036872;28;20068;-79
2022/04/27 12:37:29;;;;;;;7.15;2.90;;;15.60;52.10;;;;;;5052225;28;20045;-75
2022/04/27 12:39:40;;;;;;;9.38;3.20;;;15.50;52.30;;;;;;5037506;28;20032;-79
2022/04/27 12:42:09;;;;;;;7.80;3.35;;;15.60;52.70;;;;;;5050350;28;20033;-79
2022/04/27 12:44:58;;;;;;;7.72;3.90;;;15.60;52.60;;;;;;5053793;28;20021;-79
2022/04/27 12:47:25;;;;;;;9.10;2.22;;;15.70;52.80;;;;;;5055223;28;20041;-78
2022/04/27 12:50:00;;;;;;;;;;;15.70;52.40;;;;;;5053420;28;20033;-75
2022/04/27 12:55:15;;;;;;;12.07;4.07;;;15.70;52.70;;;;;;5055920;28;20117;-78
2022/04/27 12:58:00;;;;;;;15.35;5.82;;;15.70;52.90;;;;;;5051232;28;20086;-75
2022/04/27 13:00:48;;;;;;;18.73;5.32;;;15.70;52.90;;;;;;5054801;28;20447;-75
2022/04/27 13:03:15;;;;;;;7.00;2.40;;;15.70;52.70;;;;;;5056370;28;20135;-75
2022/04/27 13:05:42;;;;;;;9.52;2.20;;;15.80;52.40;;;;;;5050810;28;20068;-78
2022/04/27 13:08:10;;;;;;;5.43;1.50;;;15.70;52.80;;;;;;5038279;28;20045;-75
2022/04/27 13:13:22;;;;;;;5.05;2.00;;;15.60;52.20;;;;;;5055298;28;20456;-79
2022/04/27 13:15:49;;;;;;;;;;;15.60;52.50;;;;;;5051138;28;20052;-78
2022/04/27 13:18:35;;;;;;;4.43;1.63;;;15.50;52.20;;;;;;5047461;28;20399;-76
2022/04/27 13:21:01;;;;;;;6.18;2.60;;;15.60;52.30;;;;;;5054113;28;20481;-79
2022/04/27 13:23:27;;;;;;;;;;;15.60;51.70;;;;;;5049621;28;20481;-76
2022/04/27 13:25:53;;;;;;;8.38;3.38;;;15.70;51.70;;;;;;5021440;28;20015;-76
2022/04/27 13:28:22;;;;;;;7.72;2.35;;;15.90;51.40;;;;;;5037782;28;20049;-80
2022/04/27 13:30:48;;;;;;;6.10;1.67;;;16.30;50.80;;;;;;5054323;28;20041;-79
2022/04/27 13:33:15;;;;;;;7.32;1.75;;;16.80;49.10;;;;;;5055596;28;20052;-80
2022/04/27 13:35:41;;;;;;;5.35;1.95;;;17.30;48.90;;;;;;5033566;28;20041;-79
2022/04/27 13:38:09;;;;;;;5.22;1.48;;;17.70;48.20;;;;;;5055788;28;20040;-79
2022/04/27 13:40:35;;;;;;;3.72;1.50;;;18.20;47.60;;;;;;5049479;28;20401;-75
2022/04/27 13:43:03;;;;;;;;;;;18.60;47.00;;;;;;5056135;28;20541;-79
2022/04/27 13:45:30;;;;;;;3.97;1.70;;;18.90;47.10;;;;;;5048343;28;20285;-75
2022/04/27 13:47:57;;;;;;;6.20;1.83;;;19.10;45.20;;;;;;5054605;28;20033;-78
2022/04/27 13:50:23;;;;;;;4.78;1.90;;;19.10;44.30;;;;;;5047484;28;20071;-78
2022/04/27 13:52:50;;;;;;;6.47;3.13;;;19.40;44.60;;;;;;5055695;28;20041;-75